Time;durP1;ratioP1;P1;durP2;ratioP2;P2;SDS_P1;SDS_P2;PMS_P1;PMS_P2;Temp;Humidity;BMP_temperature;BMP_pressure;BME280_temperature;BME280_humidity;BME280_pressure;Samples;Min_cycle;Max_cycle;Signal;HPM_P1;HPM_P2
2023/09/08 00:01:33;;;;;;;;;;;19.90;73.50;;;;;;5029043;28;19914;-82
2023/09/08 00:03:59;;;;;;;;;;;20.00;73.50;;;;;;5025322;28;20042;-82
2023/09/08 00:06:24;;;;;;;;;;;20.00;73.40;;;;;;4995503;28;19937;-82
2023/09/08 00:08:50;;;;;;;;;;;20.00;73.30;;;;;;5014357;28;20369;-82
2023/09/08 00:11:15;;;;;;;;;;;20.00;73.10;;;;;;5011438;28;19921;-82
2023/09/08 00:13:41;;;;;;;;;;;20.00;73.20;;;;;;4995482;28;19921;-82
2023/09/08 00:16:07;;;;;;;;;;;19.90;73.30;;;;;;5014530;28;19897;-83
2023/09/08 00:18:33;;;;;;;;;;;19.80;73.40;;;;;;5014751;28;19963;-83
2023/09/08 00:20:58;;;;;;;;;;;19.80;73.50;;;;;;5014066;28;20389;-82
2023/09/08 00:23:24;;;;;;;;;;;19.80;73.50;;;;;;5032931;28;19920;-82
2023/09/08 00:25:49;;;;;;;;;;;19.80;73.50;;;;;;5017261;28;19904;-82
2023/09/08 00:28:15;;;;;;;;;;;19.80;73.50;;;;;;5017209;28;19916;-82
2023/09/08 00:30:41;;;;;;;;;;;19.70;73.50;;;;;;5036236;28;19953;-82
2023/09/08 00:33:08;;;;;;;;;;;19.70;73.60;;;;;;5003449;28;19906;-82
2023/09/08 00:35:35;;;;;;;;;;;19.70;73.60;;;;;;5003420;28;19914;-82
2023/09/08 00:38:00;;;;;;;;;;;19.70;73.50;;;;;;5013103;28;19919;-82
2023/09/08 00:40:29;;;;;;;;;;;19.70;73.50;;;;;;5010395;28;19916;-82
2023/09/08 00:42:54;;;;;;;;;;;19.70;73.50;;;;;;5031200;28;19920;-82
2023/09/08 00:45:20;;;;;;;;;;;19.70;73.50;;;;;;5034770;28;19937;-82
2023/09/08 00:47:46;;;;;;;;;;;19.60;73.60;;;;;;5018625;28;19905;-82
2023/09/08 00:50:11;;;;;;;;;;;19.60;73.70;;;;;;5034933;28;19917;-82
2023/09/08 00:52:40;;;;;;;;;;;19.60;73.80;;;;;;5015681;28;19905;-82
2023/09/08 00:55:06;;;;;;;;;;;19.70;73.90;;;;;;5003039;28;19925;-82
2023/09/08 00:57:32;;;;;;;;;;;19.80;73.80;;;;;;5036371;28;19929;-81
2023/09/08 00:59:57;;;;;;;;;;;19.80;73.70;;;;;;5019024;28;19904;-80
2023/09/08 01:02:23;;;;;;;;;;;19.90;73.60;;;;;;5003057;28;19943;-82
2023/09/08 01:04:49;;;;;;;;;;;20.00;73.60;;;;;;5019170;28;19904;-82
2023/09/08 01:07:15;;;;;;;;;;;19.90;73.50;;;;;;5035673;28;19894;-82
2023/09/08 01:09:41;;;;;;;;;;;19.90;73.60;;;;;;5017651;28;19909;-82
2023/09/08 01:12:06;;;;;;;;;;;19.90;73.60;;;;;;5016901;28;20012;-82
2023/09/08 01:14:32;;;;;;;;;;;19.90;73.60;;;;;;5031873;28;19967;-81
2023/09/08 01:16:57;;;;;;;;;;;19.90;73.60;;;;;;5000104;28;19963;-82
2023/09/08 01:19:23;;;;;;;;;;;20.00;73.60;;;;;;5000250;28;20384;-82
2023/09/08 01:21:49;;;;;;;;;;;20.00;73.50;;;;;;5000576;28;19913;-82
2023/09/08 01:24:30;;;;;;;;;;;20.00;73.30;;;;;;5001389;28;19910;-83
2023/09/08 01:26:56;;;;;;;;;;;20.00;73.30;;;;;;5001109;28;19948;-82
2023/09/08 01:29:24;;;;;;;;;;;20.00;73.30;;;;;;4986291;28;19921;-82
2023/09/08 01:31:50;;;;;;;;;;;19.90;73.30;;;;;;5027692;28;19903;-82
2023/09/08 01:34:16;;;;;;;;;;;19.80;73.40;;;;;;4996485;28;19936;-82
2023/09/08 01:36:42;;;;;;;;;;;19.70;73.50;;;;;;4994728;28;19918;-82
2023/09/08 01:39:07;;;;;;;;;;;19.70;73.60;;;;;;4994384;28;19920;-82
2023/09/08 01:41:33;;;;;;;;;;;19.60;73.60;;;;;;5011923;28;19910;-83
2023/09/08 01:43:59;;;;;;;;;;;19.60;73.70;;;;;;5013919;28;19948;-82
2023/09/08 01:46:25;;;;;;;;;;;19.60;73.80;;;;;;5014700;28;20379;-82
2023/09/08 01:48:50;;;;;;;;;;;19.60;73.80;;;;;;4998295;28;20015;-82
2023/09/08 01:51:16;;;;;;;;;;;19.60;73.70;;;;;;5015477;28;19913;-82
2023/09/08 01:53:41;;;;;;;;;;;19.50;73.70;;;;;;4997123;28;19928;-82
2023/09/08 01:56:07;;;;;;;;;;;19.50;73.70;;;;;;4997378;28;19914;-82
2023/09/08 01:58:33;;;;;;;;;;;19.50;73.80;;;;;;5014735;28;19897;-82
2023/09/08 02:01:05;;;;;;;;;;;19.50;73.70;;;;;;5016240;28;19955;-81
2023/09/08 02:03:33;;;;;;;;;;;19.50;73.50;;;;;;5014991;28;19917;-82
2023/09/08 02:05:59;;;;;;;;;;;19.50;73.40;;;;;;5031849;28;19921;-82
2023/09/08 02:08:25;;;;;;;;;;;19.50;73.50;;;;;;5032001;28;19893;-82
2023/09/08 02:10:50;;;;;;;;;;;19.50;73.60;;;;;;4997290;28;19927;-82
2023/09/08 02:13:16;;;;;;;;;;;19.50;73.60;;;;;;4997732;28;20341;-82
2023/09/08 02:15:41;;;;;;;;;;;19.50;73.50;;;;;;5030497;28;19910;-82
2023/09/08 02:18:07;;;;;;;;;;;19.50;73.40;;;;;;4996523;28;19932;-82
2023/09/08 02:20:33;;;;;;;;;;;19.60;73.40;;;;;;5031641;28;19909;-82
2023/09/08 02:23:03;;;;;;;;;;;19.60;73.30;;;;;;4997517;28;19913;-82
2023/09/08 02:25:29;;;;;;;;;;;19.60;73.30;;;;;;5013852;28;20349;-82
2023/09/08 02:27:54;;;;;;;;;;;19.50;73.30;;;;;;5013512;28;19936;-82
2023/09/08 02:30:20;;;;;;;;;;;19.50;73.30;;;;;;4997968;28;20396;-82
2023/09/08 02:32:45;;;;;;;;;;;19.50;73.10;;;;;;5013852;28;19917;-82
2023/09/08 02:35:11;;;;;;;;;;;19.50;73.10;;;;;;5014368;28;19963;-82
2023/09/08 02:37:37;;;;;;;;;;;19.50;73.10;;;;;;5013408;28;19915;-82
2023/09/08 02:40:03;;;;;;;;;;;19.50;73.10;;;;;;5014263;28;19970;-82
2023/09/08 02:42:29;;;;;;;;;;;19.50;73.20;;;;;;4998853;28;19898;-82
2023/09/08 02:44:54;;;;;;;;;;;19.50;73.20;;;;;;5015437;28;19913;-81
2023/09/08 02:47:20;;;;;;;;;;;19.50;73.20;;;;;;5015965;28;19968;-81
2023/09/08 02:49:45;;;;;;;;;;;19.40;73.30;;;;;;5015882;28;19898;-82
2023/09/08 02:52:11;;;;;;;;;;;19.30;73.40;;;;;;4999479;28;19948;-82
2023/09/08 02:54:37;;;;;;;;;;;19.20;73.60;;;;;;5001791;28;19924;-83
2023/09/08 02:57:02;;;;;;;;;;;19.20;73.70;;;;;;4999475;28;20281;-82
2023/09/08 02:59:28;;;;;;;;;;;19.20;73.80;;;;;;4999671;28;19913;-82
2023/09/08 03:01:53;;;;;;;;;;;19.20;73.70;;;;;;5000417;28;19924;-82
2023/09/08 03:04:19;;;;;;;;;;;19.20;73.60;;;;;;4999856;28;19913;-82
2023/09/08 03:06:45;;;;;;;;;;;19.30;73.50;;;;;;5007157;28;19910;-82
2023/09/08 03:09:10;;;;;;;;;;;19.30;73.40;;;;;;5013441;28;19936;-82
2023/09/08 03:11:37;;;;;;;;;;;19.30;73.30;;;;;;5031659;28;19920;-82
2023/09/08 03:14:02;;;;;;;;;;;19.40;73.20;;;;;;5015006;28;19921;-82
2023/09/08 03:16:28;;;;;;;;;;;19.30;73.20;;;;;;5018107;28;19945;-82
2023/09/08 03:18:53;;;;;;;;;;;19.30;73.20;;;;;;5018091;28;19912;-82
2023/09/08 03:21:19;;;;;;;;;;;19.30;73.30;;;;;;5017108;28;19996;-82
2023/09/08 03:23:45;;;;;;;;;;;19.30;73.30;;;;;;5017993;28;19956;-82
2023/09/08 03:26:10;;;;;;;;;;;19.40;73.50;;;;;;5002093;28;19917;-82
2023/09/08 03:28:37;;;;;;;;;;;19.30;73.50;;;;;;5036590;28;19929;-81
2023/09/08 03:31:03;;;;;;;;;;;19.30;73.50;;;;;;5019375;28;19910;-82
2023/09/08 03:33:28;;;;;;;;;;;19.30;73.60;;;;;;5018336;28;19957;-82
2023/09/08 03:35:55;;;;;;;;;;;19.30;73.60;;;;;;5018545;28;19909;-82
2023/09/08 03:38:21;;;;;;;;;;;19.40;73.50;;;;;;5018652;28;19913;-82
2023/09/08 03:40:46;;;;;;;;;;;19.40;73.40;;;;;;5018743;28;19910;-82
2023/09/08 03:43:12;;;;;;;;;;;19.40;73.50;;;;;;5019563;28;19893;-82
2023/09/08 03:45:37;;;;;;;;;;;19.30;73.50;;;;;;5036606;28;19910;-81
2023/09/08 03:48:03;;;;;;;;;;;19.30;73.60;;;;;;5037048;28;19926;-81
2023/09/08 03:50:29;;;;;;;;;;;19.20;73.70;;;;;;5020068;28;19939;-81
2023/09/08 03:52:55;;;;;;;;;;;19.10;73.70;;;;;;5033263;28;19922;-82
2023/09/08 03:55:21;;;;;;;;;;;19.10;74.30;;;;;;5036210;28;19906;-82
2023/09/08 03:57:47;;;;;;;;;;;19.20;73.80;;;;;;5019693;28;19936;-81
2023/09/08 04:00:19;;;;;;;;;;;19.20;73.60;;;;;;5003452;28;19898;-81
2023/09/08 04:02:44;;;;;;;;;;;19.10;73.50;;;;;;5017969;28;19913;-82
2023/09/08 04:05:10;;;;;;;;;;;19.00;73.70;;;;;;5036275;28;19924;-80
2023/09/08 04:07:36;;;;;;;;;;;19.00;73.80;;;;;;5001589;28;19898;-81
2023/09/08 04:10:02;;;;;;;;;;;19.00;73.80;;;;;;5003558;28;19921;-82
2023/09/08 04:12:28;;;;;;;;;;;19.00;73.80;;;;;;5019668;28;19929;-81
2023/09/08 04:14:54;;;;;;;;;;;19.00;73.80;;;;;;5020096;28;19977;-81
2023/09/08 04:17:19;;;;;;;;;;;19.00;73.60;;;;;;5037804;28;19904;-81
2023/09/08 04:19:45;;;;;;;;;;;19.00;73.50;;;;;;5037770;28;19917;-81
2023/09/08 04:22:10;;;;;;;;;;;19.10;73.50;;;;;;5020283;28;19905;-82
2023/09/08 04:24:37;;;;;;;;;;;19.00;73.40;;;;;;5004445;28;19908;-82
2023/09/08 04:27:02;;;;;;;;;;;19.00;73.50;;;;;;5036826;28;19897;-82
2023/09/08 04:29:28;;;;;;;;;;;18.90;73.50;;;;;;5020632;28;19924;-81
2023/09/08 04:31:54;;;;;;;;;;;18.90;73.50;;;;;;5012836;28;19913;-82
2023/09/08 04:34:19;;;;;;;;;;;18.90;73.60;;;;;;4999130;28;19933;-81
2023/09/08 04:36:45;;;;;;;;;;;18.90;73.60;;;;;;5020693;28;19897;-81
2023/09/08 04:39:11;;;;;;;;;;;18.90;73.60;;;;;;5020355;28;19914;-81
2023/09/08 04:41:37;;;;;;;;;;;18.90;73.60;;;;;;5003830;28;19937;-81
2023/09/08 04:44:03;;;;;;;;;;;18.90;73.50;;;;;;5019618;28;19952;-80
2023/09/08 04:46:29;;;;;;;;;;;19.00;73.50;;;;;;5017818;28;19927;-81
2023/09/08 04:48:54;;;;;;;;;;;18.90;73.40;;;;;;5018288;28;19932;-82
2023/09/08 04:51:20;;;;;;;;;;;18.90;73.50;;;;;;5000631;28;19944;-81
2023/09/08 04:53:45;;;;;;;;;;;18.90;73.50;;;;;;5033384;28;19945;-82
2023/09/08 04:56:12;;;;;;;;;;;18.90;73.50;;;;;;5001751;28;20433;-81
2023/09/08 04:58:37;;;;;;;;;;;18.90;73.60;;;;;;5017502;28;19897;-81
2023/09/08 05:01:03;;;;;;;;;;;18.90;73.80;;;;;;5003712;28;19921;-82
2023/09/08 05:03:30;;;;;;;;;;;18.90;73.80;;;;;;5018842;28;19897;-82
2023/09/08 05:05:56;;;;;;;;;;;18.90;73.60;;;;;;5002732;28;19960;-82
2023/09/08 05:08:21;;;;;;;;;;;18.90;73.60;;;;;;5000666;28;19918;-82
2023/09/08 05:10:47;;;;;;;;;;;18.90;73.60;;;;;;5017608;28;19980;-82
2023/09/08 05:13:12;;;;;;;;;;;18.90;73.60;;;;;;5016043;28;19917;-82
2023/09/08 05:15:39;;;;;;;;;;;18.90;73.50;;;;;;5033487;28;19917;-82
2023/09/08 05:18:05;;;;;;;;;;;18.90;73.60;;;;;;5016168;28;19898;-82
2023/09/08 05:20:30;;;;;;;;;;;18.80;73.70;;;;;;5016604;28;19918;-82
2023/09/08 05:22:56;;;;;;;;;;;18.80;73.80;;;;;;5001219;28;19898;-83
2023/09/08 05:25:21;;;;;;;;;;;18.80;73.80;;;;;;5033467;28;19917;-82
2023/09/08 05:27:48;;;;;;;;;;;18.90;73.90;;;;;;5032956;28;19893;-82
2023/09/08 05:30:14;;;;;;;;;;;18.90;73.80;;;;;;5031100;28;19924;-82
2023/09/08 05:32:39;;;;;;;;;;;19.00;73.80;;;;;;5027025;28;19937;-82
2023/09/08 05:35:05;;;;;;;;;;;19.00;73.70;;;;;;5033441;28;19926;-82
2023/09/08 05:37:31;;;;;;;;;;;19.10;73.60;;;;;;5013945;28;19910;-83
2023/09/08 05:39:56;;;;;;;;;;;19.10;73.60;;;;;;4998614;28;19913;-82
2023/09/08 05:42:22;;;;;;;;;;;19.20;73.50;;;;;;5000316;28;19948;-82
2023/09/08 05:44:47;;;;;;;;;;;19.20;73.50;;;;;;5015361;28;19920;-82
2023/09/08 05:47:13;;;;;;;;;;;19.20;73.50;;;;;;4998322;28;19913;-81
2023/09/08 05:49:39;;;;;;;;;;;19.10;73.40;;;;;;4998495;28;19917;-82
2023/09/08 05:52:04;;;;;;;;;;;19.10;73.50;;;;;;5031514;28;19980;-83
2023/09/08 05:54:30;;;;;;;;;;;19.00;73.60;;;;;;5012730;28;19941;-82
2023/09/08 05:56:56;;;;;;;;;;;18.90;73.80;;;;;;5030796;28;20289;-82
2023/09/08 05:59:21;;;;;;;;;;;18.90;73.90;;;;;;5012484;28;19909;-81
2023/09/08 06:01:47;;;;;;;;;;;18.90;73.80;;;;;;5012779;28;19920;-82
2023/09/08 06:04:12;;;;;;;;;;;19.00;73.90;;;;;;5009257;28;19898;-83
2023/09/08 06:06:38;;;;;;;;;;;19.00;73.80;;;;;;4991915;28;19918;-83
2023/09/08 06:09:06;;;;;;;;;;;19.00;73.80;;;;;;5005098;28;19910;-83
2023/09/08 06:11:31;;;;;;;;;;;19.00;73.70;;;;;;5020136;28;19909;-83
2023/09/08 06:13:59;;;;;;;;;;;19.10;73.70;;;;;;5003107;28;19918;-82
2023/09/08 06:16:25;;;;;;;;;;;19.10;73.60;;;;;;5005201;28;19925;-82
2023/09/08 06:18:50;;;;;;;;;;;19.20;73.70;;;;;;5007473;28;19910;-82
2023/09/08 06:21:16;;;;;;;;;;;19.20;73.70;;;;;;5009202;28;19900;-82
2023/09/08 06:23:41;;;;;;;;;;;19.30;73.70;;;;;;4990451;28;19936;-82
2023/09/08 06:26:07;;;;;;;;;;;19.40;73.60;;;;;;5026051;28;19914;-81
2023/09/08 06:28:33;;;;;;;;;;;19.40;73.60;;;;;;5009419;28;19933;-78
2023/09/08 06:30:59;;;;;;;;;;;19.60;73.60;;;;;;5024591;28;19937;-82
2023/09/08 06:33:24;;;;;;;;;;;19.60;73.60;;;;;;5003864;28;19917;-81
2023/09/08 06:35:50;;;;;;;;;;;19.70;73.60;;;;;;5006766;28;19939;-82
2023/09/08 06:38:15;;;;;;;;;;;19.80;73.50;;;;;;5006169;28;20015;-82
2023/09/08 06:40:41;;;;;;;;;;;19.90;73.50;;;;;;5008749;28;19921;-81
2023/09/08 06:43:06;;;;;;;;;;;19.90;73.40;;;;;;4990841;28;19937;-81
2023/09/08 06:45:32;;;;;;;;;;;20.00;73.50;;;;;;5027747;28;20001;-82
2023/09/08 06:47:59;;;;;;;;;;;20.10;73.40;;;;;;4989328;28;20404;-74
2023/09/08 06:50:26;;;;;;;;;;;20.20;73.40;;;;;;5006860;28;19910;-82
2023/09/08 06:52:51;;;;;;;;;;;20.30;73.30;;;;;;5025448;28;19949;-82
2023/09/08 06:55:17;;;;;;;;;;;20.30;73.20;;;;;;5007221;28;19932;-81
2023/09/08 06:57:43;;;;;;;;;;;20.40;73.20;;;;;;4994771;28;19950;-81
2023/09/08 07:00:11;;;;;;;;;;;20.50;73.20;;;;;;5010809;28;19909;-81
2023/09/08 07:02:37;;;;;;;;;;;20.60;73.30;;;;;;5009338;28;19917;-81
2023/09/08 07:05:07;;;;;;;;;;;20.70;73.30;;;;;;5008399;28;19917;-82
2023/09/08 07:07:33;;;;;;;;;;;20.80;73.20;;;;;;5009327;28;19920;-81
2023/09/08 07:09:59;;;;;;;;;;;20.90;73.10;;;;;;5011183;28;19913;-82
2023/09/08 07:12:24;;;;;;;;;;;21.00;73.10;;;;;;5008633;28;20194;-82
2023/09/08 07:14:50;;;;;;;;;;;21.10;73.10;;;;;;4990369;28;19917;-80
2023/09/08 07:17:15;;;;;;;;;;;21.30;73.70;;;;;;5004166;28;19914;-82
2023/09/08 07:19:41;;;;;;;;;;;21.40;73.10;;;;;;5008763;28;20013;-81
2023/09/08 07:22:07;;;;;;;;;;;21.50;73.10;;;;;;4993931;28;20371;-82
2023/09/08 07:24:32;;;;;;;;;;;21.70;73.20;;;;;;5026474;28;19920;-82
2023/09/08 07:26:58;;;;;;;;;;;21.90;73.30;;;;;;5025731;28;19977;-82
2023/09/08 07:29:23;;;;;;;;;;;22.00;73.30;;;;;;4990526;28;19921;-82
2023/09/08 07:31:49;;;;;;;;;;;22.30;73.30;;;;;;5026339;28;19913;-82
2023/09/08 07:34:15;;;;;;;;;;;22.50;73.10;;;;;;4990732;28;19918;-82
2023/09/08 07:36:40;;;;;;;;;;;22.60;73.20;;;;;;5030381;28;20381;-82
2023/09/08 07:39:06;;;;;;;;;;;22.70;73.30;;;;;;5030313;28;19923;-81
2023/09/08 07:41:31;;;;;;;;;;;22.90;73.50;;;;;;4996154;28;19929;-81
2023/09/08 07:43:57;;;;;;;;;;;23.10;73.60;;;;;;5008418;28;19940;-82
2023/09/08 07:46:22;;;;;;;;;;;23.50;74.00;;;;;;4987428;28;19914;-81
2023/09/08 07:48:48;;;;;;;;;;;24.30;74.50;;;;;;4981832;28;19948;-82
2023/09/08 07:51:14;;;;;;;;;;;25.20;74.20;;;;;;4998670;28;20012;-82
2023/09/08 07:53:39;;;;;;;;;;;25.90;74.00;;;;;;5015089;28;20324;-74
2023/09/08 07:56:05;;;;;;;;;;;26.10;73.50;;;;;;5014959;28;20411;-81
2023/09/08 07:58:30;;;;;;;;;;;26.20;73.50;;;;;;4983606;28;20087;-82
2023/09/08 08:00:56;;;;;;;;;;;26.20;73.70;;;;;;5003257;28;20262;-81
2023/09/08 08:03:21;;;;;;;;;;;26.60;74.30;;;;;;4985135;28;20004;-81
2023/09/08 08:05:47;;;;;;;;;;;27.40;74.50;;;;;;5000730;28;19920;-82
2023/09/08 08:08:13;;;;;;;;;;;28.10;75.30;;;;;;4998029;28;20357;-82
2023/09/08 08:10:40;;;;;;;;;;;29.00;74.80;;;;;;5003322;28;19924;-79
2023/09/08 08:13:09;;;;;;;;;;;29.70;74.80;;;;;;5001614;28;20263;-79
2023/09/08 08:15:36;;;;;;;;;;;30.40;74.80;;;;;;5004314;28;19975;-79
2023/09/08 08:18:02;;;;;;;;;;;30.90;74.60;;;;;;5020159;28;19909;-81
2023/09/08 08:20:27;;;;;;;;;;;31.50;74.40;;;;;;5024041;28;19948;-66
2023/09/08 08:22:53;;;;;;;;;;;32.00;74.30;;;;;;5020545;28;19968;-81
2023/09/08 08:25:18;;;;;;;;;;;32.40;74.40;;;;;;5002669;28;19921;-83
2023/09/08 08:27:44;;;;;;;;;;;32.80;74.50;;;;;;5019160;28;20392;-81
2023/09/08 08:30:11;;;;;;;;;;;33.20;74.60;;;;;;5021738;28;19921;-82
2023/09/08 08:32:36;;;;;;;;;;;33.40;74.70;;;;;;5020619;28;20017;-82
2023/09/08 08:35:04;;;;;;;;;;;33.50;75.00;;;;;;5002387;28;19975;-79
2023/09/08 08:37:30;;;;;;;;;;;33.60;75.60;;;;;;5001070;28;19956;-80
2023/09/08 08:39:55;;;;;;;;;;;33.90;75.90;;;;;;4984050;28;20034;-78
2023/09/08 08:42:22;;;;;;;;;;;34.30;75.90;;;;;;4984427;28;19920;-79
2023/09/08 08:44:48;;;;;;;;;;;34.60;76.00;;;;;;5003913;28;19923;-81
2023/09/08 08:47:14;;;;;;;;;;;35.00;76.00;;;;;;5003294;28;19918;-81
2023/09/08 08:49:42;;;;;;;;;;;35.40;76.10;;;;;;5000362;28;19925;-79
2023/09/08 08:52:08;;;;;;;;;;;35.70;75.80;;;;;;5002047;28;19927;-80
2023/09/08 08:54:37;;;;;;;;;;;35.90;76.10;;;;;;5019513;28;19933;-80
2023/09/08 08:57:03;;;;;;;;;;;36.20;76.10;;;;;;5000057;28;19940;-80
2023/09/08 08:59:29;;;;;;;;;;;36.40;76.20;;;;;;5015356;28;19914;-81
2023/09/08 09:01:55;;;;;;;;;;;36.70;76.10;;;;;;4986178;28;20020;-80
2023/09/08 09:04:21;;;;;;;;;;;37.00;76.30;;;;;;5002704;28;19968;-81
2023/09/08 09:06:47;;;;;;;;;;;37.10;76.40;;;;;;5000189;28;20364;-81
2023/09/08 09:09:13;;;;;;;;;;;37.40;76.30;;;;;;4983712;28;19948;-79
2023/09/08 09:11:39;;;;;;;;;;;37.70;76.10;;;;;;4988245;28;19913;-80
2023/09/08 09:14:05;;;;;;;;;;;38.00;76.20;;;;;;5010706;28;19917;-80
2023/09/08 09:16:31;;;;;;;;;;;38.10;76.00;;;;;;4992047;28;19968;-80
2023/09/08 09:18:57;;;;;;;;;;;38.30;76.20;;;;;;4975033;28;19971;-79
2023/09/08 09:21:23;;;;;;;;;;;38.50;76.20;;;;;;5010503;28;20008;-79
2023/09/08 09:23:49;;;;;;;;;;;38.70;76.30;;;;;;4993901;28;19913;-78
2023/09/08 09:26:25;;;;;;;;;;;38.90;76.20;;;;;;4990682;28;19917;-80
2023/09/08 09:28:52;;;;;;;;;;;38.90;76.40;;;;;;5009983;28;19914;-76
2023/09/08 09:31:26;;;;;;;;;;;39.10;76.60;;;;;;5015393;28;20386;-81
2023/09/08 09:34:05;;;;;;;;;;;39.30;76.60;;;;;;5013914;28;19913;-81
2023/09/08 09:36:31;;;;;;;;;;;39.50;76.60;;;;;;4994183;28;20004;-81
2023/09/08 09:39:00;;;;;;;;;;;39.70;76.60;;;;;;5011893;28;20404;-82
2023/09/08 09:41:32;;;;;;;;;;;39.80;76.70;;;;;;5000300;28;19909;-81
2023/09/08 09:43:57;;;;;;;;;;;39.90;76.80;;;;;;5021012;28;19909;-81
2023/09/08 09:46:23;;;;;;;;;;;40.10;76.90;;;;;;5012276;28;19916;-82
2023/09/08 09:48:56;;;;;;;;;;;40.00;76.90;;;;;;5013657;28;20419;-82
2023/09/08 09:51:22;;;;;;;;;;;40.10;77.60;;;;;;4996519;28;19997;-81
2023/09/08 09:53:49;;;;;;;;;;;40.30;77.20;;;;;;4963680;28;19945;-81
2023/09/08 09:56:16;;;;;;;;;;;40.30;77.20;;;;;;5029461;28;19929;-81
2023/09/08 09:58:42;;;;;;;;;;;40.20;77.80;;;;;;5028792;28;19932;-81
2023/09/08 10:01:08;;;;;;;;;;;40.50;78.10;;;;;;5030412;28;19913;-76
2023/09/08 10:03:33;;;;;;;;;;;40.90;77.70;;;;;;5006040;28;20431;-80
2023/09/08 10:05:59;;;;;;;;;;;40.90;77.90;;;;;;5026772;28;19960;-77
2023/09/08 10:08:25;;;;;;;;;;;41.00;77.60;;;;;;4987807;28;20354;-78
2023/09/08 10:10:51;;;;;;;;;;;40.90;78.20;;;;;;4972024;28;19946;-79
2023/09/08 10:13:37;;;;;;;;;;;41.10;78.20;;;;;;4975693;28;19918;-75
2023/09/08 10:16:03;;;;;;;;;;;41.50;77.80;;;;;;5008118;28;19963;-75
2023/09/08 10:18:30;;;;;;;;;;;41.80;77.70;;;;;;5006919;28;19964;-79
2023/09/08 10:20:57;;;;;;;;;;;41.70;77.00;;;;;;4984241;28;19961;-84
2023/09/08 10:23:26;;;;;;;;;;;41.60;77.70;;;;;;5008488;28;19910;-80
2023/09/08 10:25:54;;;;;;;;;;;41.70;77.70;;;;;;5008236;28;20044;-79
2023/09/08 10:28:22;;;;;;;;;;;42.00;77.50;;;;;;5008643;28;19913;-78
2023/09/08 10:30:47;;;;;;;;;;;42.20;77.30;;;;;;5008572;28;19956;-75
2023/09/08 10:33:14;;;;;;;;;;;42.20;77.50;;;;;;5008296;28;19998;-80
2023/09/08 10:35:43;;;;;;;;;;;42.10;77.50;;;;;;5008806;28;19913;-80
2023/09/08 10:38:22;;;;;;;;;;;42.20;77.50;;;;;;4990895;28;19909;-73
2023/09/08 10:40:48;;;;;;;;;;;42.20;77.40;;;;;;4990905;28;19916;-75
2023/09/08 10:43:13;;;;;;;;;;;42.40;77.40;;;;;;4990773;28;20281;-78
2023/09/08 10:45:41;;;;;;;;;;;42.70;77.30;;;;;;5009060;28;19945;-78
2023/09/08 10:48:06;;;;;;;;;;;42.90;77.20;;;;;;5007708;28;19918;-80
2023/09/08 10:50:34;;;;;;;;;;;42.80;77.20;;;;;;5009077;28;20231;-79
2023/09/08 10:53:16;;;;;;;;;;;42.80;77.50;;;;;;4991147;28;19918;-81
2023/09/08 10:55:48;;;;;;;;;;;42.90;77.80;;;;;;5008839;28;19986;-80
2023/09/08 10:58:33;;;;;;;;;;;43.00;77.70;;;;;;5009057;28;19910;-80
2023/09/08 11:01:01;;;;;;;;;;;42.90;77.80;;;;;;5008677;28;19921;-80
2023/09/08 11:03:38;;;;;;;;;;;42.90;78.00;;;;;;5008757;28;19975;-76
2023/09/08 11:06:04;;;;;;;;;;;42.80;78.20;;;;;;5009297;28;20346;-81
2023/09/08 11:08:30;;;;;;;;;;;42.80;78.30;;;;;;5009810;28;19914;-80
2023/09/08 11:10:56;;;;;;;;;;;42.90;78.60;;;;;;5009071;28;19932;-81
2023/09/08 11:13:21;;;;;;;;;;;43.10;78.60;;;;;;5008967;28;19917;-81
2023/09/08 11:15:47;;;;;;;;;;;43.30;78.50;;;;;;5008477;28;19909;-79
2023/09/08 11:18:12;;;;;;;;;;;43.50;78.30;;;;;;5008188;28;19909;-80
2023/09/08 11:20:38;;;;;;;;;;;43.80;78.20;;;;;;5007848;28;19918;-79
2023/09/08 11:23:05;;;;;;;;;;;43.80;77.90;;;;;;5008458;28;20404;-84
2023/09/08 11:25:32;;;;;;;;;;;43.60;78.20;;;;;;4991411;28;20373;-82
2023/09/08 11:27:57;;;;;;;;;;;43.40;78.40;;;;;;5008886;28;19914;-84
2023/09/08 11:30:24;;;;;;;;;;;43.40;78.70;;;;;;5009664;28;19972;-79
2023/09/08 11:32:49;;;;;;;;;;;43.50;78.70;;;;;;5008745;28;19956;-74
2023/09/08 11:35:16;;;;;;;;;;;43.70;78.60;;;;;;5009264;28;20551;-81
2023/09/08 11:37:41;;;;;;;;;;;43.60;78.50;;;;;;4978351;28;19914;-75
2023/09/08 11:40:13;;;;;;;;;;;43.60;78.40;;;;;;5012604;28;20333;-78
2023/09/08 11:42:43;;;;;;;;;;;43.10;78.40;;;;;;5011012;28;20091;-74
2023/09/08 11:45:23;;;;;;;;;;;42.30;79.10;;;;;;5012197;28;20350;-81
2023/09/08 11:47:53;;;;;;;;;;;41.90;80.00;;;;;;5012159;28;19955;-77
2023/09/08 11:50:18;;;;;;;;;;;42.00;80.30;;;;;;5012295;28;20349;-85
2023/09/08 11:52:45;;;;;;;;;;;42.20;79.90;;;;;;5012015;28;19936;-75
2023/09/08 11:55:11;;;;;;;;;;;42.50;79.60;;;;;;5011217;28;20346;-76
2023/09/08 11:57:37;;;;;;;;;;;42.70;79.00;;;;;;5012892;28;19949;-79
2023/09/08 12:00:05;;;;;;;;;;;42.70;78.90;;;;;;4993236;28;20469;-77
2023/09/08 12:02:37;;;;;;;;;;;42.70;78.70;;;;;;4996575;28;19918;-80
2023/09/08 12:05:03;;;;;;;;;;;42.70;78.60;;;;;;4991970;28;19928;-78
2023/09/08 12:07:28;;;;;;;;;;;42.80;78.70;;;;;;4992391;28;19971;-79
2023/09/08 12:09:54;;;;;;;;;;;42.90;78.40;;;;;;4991935;28;19914;-82
2023/09/08 12:12:20;;;;;;;;;;;42.90;78.60;;;;;;4991511;28;20436;-79
2023/09/08 12:14:45;;;;;;;;;;;42.80;78.70;;;;;;4992005;28;20282;-76
2023/09/08 12:17:15;;;;;;;;;;;42.70;78.60;;;;;;4974621;28;19964;-80
2023/09/08 12:19:41;;;;;;;;;;;42.80;78.60;;;;;;5000395;28;19921;-82
2023/09/08 12:22:12;;;;;;;;;;;42.80;78.60;;;;;;4977538;28;19936;-82
2023/09/08 12:25:07;;;;;;;;;;;42.80;78.50;;;;;;4993550;28;19913;-80
2023/09/08 12:27:35;;;;;;;;;;;42.50;78.80;;;;;;4975733;28;19959;-74
2023/09/08 12:30:01;;;;;;;;;;;42.40;78.40;;;;;;5008368;28;19920;-78
2023/09/08 12:32:29;;;;;;;;;;;42.20;78.00;;;;;;4986634;28;19933;-73
2023/09/08 12:34:55;;;;;;;;;;;41.90;78.00;;;;;;5010871;28;20309;-79
2023/09/08 12:37:24;;;;;;;;;;;41.70;78.10;;;;;;5010041;28;19917;-78
2023/09/08 12:39:50;;;;;;;;;;;41.70;78.00;;;;;;5011597;28;19917;-78
2023/09/08 12:42:16;;;;;;;;;;;41.70;78.20;;;;;;5009389;28;20314;-78
2023/09/08 12:44:41;;;;;;;;;;;41.70;78.30;;;;;;4996247;28;20017;-78
2023/09/08 12:47:09;;;;;;;;;;;41.90;78.20;;;;;;4991738;28;19985;-78
2023/09/08 12:49:34;;;;;;;;;;;41.50;77.60;;;;;;4992333;28;19925;-77
2023/09/08 12:52:00;;;;;;;;;;;40.80;77.30;;;;;;4992269;28;19917;-76
2023/09/08 12:54:25;;;;;;;;;;;40.10;77.80;;;;;;4984933;28;20036;-75
2023/09/08 12:56:51;;;;;;;;;;;39.50;77.90;;;;;;4959662;28;19921;-76
2023/09/08 12:59:16;;;;;;;;;;;39.40;79.10;;;;;;4992529;28;19913;-76
2023/09/08 13:01:42;;;;;;;;;;;39.60;78.60;;;;;;4999620;28;19913;-78
2023/09/08 13:04:07;;;;;;;;;;;39.90;78.40;;;;;;4973207;28;19960;-80
2023/09/08 13:06:34;;;;;;;;;;;40.10;78.20;;;;;;4997015;28;19933;-75
2023/09/08 13:09:00;;;;;;;;;;;40.40;78.00;;;;;;5011445;28;19927;-83
2023/09/08 13:11:26;;;;;;;;;;;40.50;77.70;;;;;;5012095;28;19924;-78
2023/09/08 13:13:51;;;;;;;;;;;40.40;77.20;;;;;;5009703;28;19918;-76
2023/09/08 13:16:17;;;;;;;;;;;40.10;77.20;;;;;;5010086;28;20008;-78
2023/09/08 13:18:44;;;;;;;;;;;40.00;77.50;;;;;;4992030;28;19917;-76
2023/09/08 13:21:10;;;;;;;;;;;39.90;77.60;;;;;;5009146;28;19926;-78
2023/09/08 13:23:36;;;;;;;;;;;39.70;77.90;;;;;;4974882;28;20262;-74
2023/09/08 13:26:01;;;;;;;;;;;39.60;77.90;;;;;;4989554;28;20366;-75
2023/09/08 13:28:27;;;;;;;;;;;39.50;78.00;;;;;;4989939;28;19993;-80
2023/09/08 13:30:53;;;;;;;;;;;39.60;77.80;;;;;;4978104;28;20365;-78
2023/09/08 13:33:18;;;;;;;;;;;39.50;77.40;;;;;;4983265;28;19933;-78
2023/09/08 13:35:44;;;;;;;;;;;39.10;77.60;;;;;;4992662;28;20024;-78
2023/09/08 13:38:09;;;;;;;;;;;38.70;78.20;;;;;;4975632;28;19931;-79
2023/09/08 13:40:35;;;;;;;;;;;38.40;78.30;;;;;;4991722;28;20076;-79
2023/09/08 13:43:01;;;;;;;;;;;38.10;78.00;;;;;;4990750;28;19914;-77
2023/09/08 13:45:26;;;;;;;;;;;37.70;77.90;;;;;;4991872;28;19918;-78
2023/09/08 13:47:52;;;;;;;;;;;37.40;77.50;;;;;;5010160;28;20395;-78
2023/09/08 13:50:17;;;;;;;;;;;37.10;77.10;;;;;;4974666;28;19921;-70
2023/09/08 13:52:43;;;;;;;;;;;36.80;77.10;;;;;;4986307;28;19928;-79
2023/09/08 13:55:10;;;;;;;;;;;36.40;76.70;;;;;;4987185;28;19914;-80
2023/09/08 13:57:36;;;;;;;;;;;36.10;76.60;;;;;;4987591;28;19914;-77
2023/09/08 14:00:02;;;;;;;;;;;35.70;76.50;;;;;;4970490;28;20614;-77
2023/09/08 14:02:27;;;;;;;;;;;35.30;76.40;;;;;;4990680;28;19953;-81
2023/09/08 14:04:53;;;;;;;;;;;34.90;76.50;;;;;;5006229;28;19949;-77
2023/09/08 14:07:19;;;;;;;;;;;34.70;76.50;;;;;;5009622;28;19922;-80
2023/09/08 14:09:44;;;;;;;;;;;34.60;76.60;;;;;;5008877;28;20366;-77
2023/09/08 14:12:10;;;;;;;;;;;34.60;76.20;;;;;;4974762;28;20064;-75